sensor_id;sensor_type;location;lat;lon;timestamp;temperature;humidity
4090;DHT22;2059;48.538;12.146;2023-08-12T00:03:19;19.60;99.90
4090;DHT22;2059;48.538;12.146;2023-08-12T00:08:22;19.50;99.90
4090;DHT22;2059;48.538;12.146;2023-08-12T00:13:24;19.50;99.90
4090;DHT22;2059;48.538;12.146;2023-08-12T00:18:26;19.50;99.90
4090;DHT22;2059;48.538;12.146;2023-08-12T00:23:29;19.50;99.90
4090;DHT22;2059;48.538;12.146;2023-08-12T00:28:31;19.30;99.90
4090;DHT22;2059;48.538;12.146;2023-08-12T00:33:33;19.20;99.90
4090;DHT22;2059;48.538;12.146;2023-08-12T00:38:36;19.20;99.90
4090;DHT22;2059;48.538;12.146;2023-08-12T00:43:38;19.20;99.90
4090;DHT22;2059;48.538;12.146;2023-08-12T00:48:40;19.20;99.90
4090;DHT22;2059;48.538;12.146;2023-08-12T00:53:45;19.10;99.90
4090;DHT22;2059;48.538;12.146;2023-08-12T00:58:48;19.00;99.90
4090;DHT22;2059;48.538;12.146;2023-08-12T01:03:50;18.90;99.90
4090;DHT22;2059;48.538;12.146;2023-08-12T01:08:53;18.90;99.90
4090;DHT22;2059;48.538;12.146;2023-08-12T01:13:58;18.90;99.90
4090;DHT22;2059;48.538;12.146;2023-08-12T01:19:02;18.90;99.90
4090;DHT22;2059;48.538;12.146;2023-08-12T01:24:07;18.90;99.90
4090;DHT22;2059;48.538;12.146;2023-08-12T01:29:09;18.80;99.90
4090;DHT22;2059;48.538;12.146;2023-08-12T01:34:14;18.80;99.90
4090;DHT22;2059;48.538;12.146;2023-08-12T01:39:19;18.70;99.90
4090;DHT22;2059;48.538;12.146;2023-08-12T01:44:22;18.70;99.90
4090;DHT22;2059;48.538;12.146;2023-08-12T01:49:23;18.60;99.90
4090;DHT22;2059;48.538;12.146;2023-08-12T01:54:26;18.60;99.90
4090;DHT22;2059;48.538;12.146;2023-08-12T01:59:33;18.60;99.90
4090;DHT22;2059;48.538;12.146;2023-08-12T02:04:35;18.40;99.90
4090;DHT22;2059;48.538;12.146;2023-08-12T02:09:39;18.40;99.90
4090;DHT22;2059;48.538;12.146;2023-08-12T02:14:41;18.30;99.90
4090;DHT22;2059;48.538;12.146;2023-08-12T02:19:43;18.30;99.90
4090;DHT22;2059;48.538;12.146;2023-08-12T02:24:46;18.20;99.90
4090;DHT22;2059;48.538;12.146;2023-08-12T02:29:47;18.20;99.90
4090;DHT22;2059;48.538;12.146;2023-08-12T02:34:49;18.10;99.90
4090;DHT22;2059;48.538;12.146;2023-08-12T02:39:52;18.10;99.90
4090;DHT22;2059;48.538;12.146;2023-08-12T02:44:54;18.10;99.90
4090;DHT22;2059;48.538;12.146;2023-08-12T02:49:56;18.00;99.90
4090;DHT22;2059;48.538;12.146;2023-08-12T02:54:59;18.00;99.90
4090;DHT22;2059;48.538;12.146;2023-08-12T03:00:01;18.00;99.90
4090;DHT22;2059;48.538;12.146;2023-08-12T03:05:06;18.10;99.90
4090;DHT22;2059;48.538;12.146;2023-08-12T03:10:10;18.00;99.90
4090;DHT22;2059;48.538;12.146;2023-08-12T03:15:12;18.00;99.90
4090;DHT22;2059;48.538;12.146;2023-08-12T03:20:14;17.90;99.90
4090;DHT22;2059;48.538;12.146;2023-08-12T03:25:17;17.90;99.90
4090;DHT22;2059;48.538;12.146;2023-08-12T03:30:20;17.90;99.90
4090;DHT22;2059;48.538;12.146;2023-08-12T03:35:21;17.90;99.90
4090;DHT22;2059;48.538;12.146;2023-08-12T03:40:25;17.80;99.90
4090;DHT22;2059;48.538;12.146;2023-08-12T03:45:26;17.80;99.90
4090;DHT22;2059;48.538;12.146;2023-08-12T03:50:28;17.70;99.90
4090;DHT22;2059;48.538;12.146;2023-08-12T03:55:32;17.60;99.90
4090;DHT22;2059;48.538;12.146;2023-08-12T04:00:34;17.60;99.90
4090;DHT22;2059;48.538;12.146;2023-08-12T04:05:35;17.60;99.90
4090;DHT22;2059;48.538;12.146;2023-08-12T04:10:38;17.60;99.90
4090;DHT22;2059;48.538;12.146;2023-08-12T04:15:40;17.70;99.90
4090;DHT22;2059;48.538;12.146;2023-08-12T04:20:42;17.60;99.90
4090;DHT22;2059;48.538;12.146;2023-08-12T04:25:46;17.50;99.90
4090;DHT22;2059;48.538;12.146;2023-08-12T04:30:49;17.50;99.90
4090;DHT22;2059;48.538;12.146;2023-08-12T04:35:52;17.40;99.90
4090;DHT22;2059;48.538;12.146;2023-08-12T04:40:56;17.50;99.90
4090;DHT22;2059;48.538;12.146;2023-08-12T04:45:57;17.60;99.90
4090;DHT22;2059;48.538;12.146;2023-08-12T04:50:59;17.60;99.90
4090;DHT22;2059;48.538;12.146;2023-08-12T04:56:04;17.60;99.90
4090;DHT22;2059;48.538;12.146;2023-08-12T05:01:07;17.70;99.90
4090;DHT22;2059;48.538;12.146;2023-08-12T05:06:09;17.80;99.90
4090;DHT22;2059;48.538;12.146;2023-08-12T05:11:12;18.00;99.90
4090;DHT22;2059;48.538;12.146;2023-08-12T05:16:14;17.90;99.90
4090;DHT22;2059;48.538;12.146;2023-08-12T05:21:16;18.10;99.90
4090;DHT22;2059;48.538;12.146;2023-08-12T05:26:19;18.20;99.90
4090;DHT22;2059;48.538;12.146;2023-08-12T05:31:21;18.30;99.90
4090;DHT22;2059;48.538;12.146;2023-08-12T05:36:23;18.30;99.90
4090;DHT22;2059;48.538;12.146;2023-08-12T05:41:26;18.40;99.90
4090;DHT22;2059;48.538;12.146;2023-08-12T05:46:28;18.40;99.90
4090;DHT22;2059;48.538;12.146;2023-08-12T05:51:30;18.50;99.90
4090;DHT22;2059;48.538;12.146;2023-08-12T05:56:33;18.60;99.90
4090;DHT22;2059;48.538;12.146;2023-08-12T06:01:34;18.70;99.90
4090;DHT22;2059;48.538;12.146;2023-08-12T06:06:36;19.00;99.90
4090;DHT22;2059;48.538;12.146;2023-08-12T06:11:39;19.10;99.90
4090;DHT22;2059;48.538;12.146;2023-08-12T06:16:41;19.30;99.90
4090;DHT22;2059;48.538;12.146;2023-08-12T06:21:43;19.40;99.90
4090;DHT22;2059;48.538;12.146;2023-08-12T06:26:46;19.60;99.90
4090;DHT22;2059;48.538;12.146;2023-08-12T06:31:48;19.70;99.90
4090;DHT22;2059;48.538;12.146;2023-08-12T06:36:49;19.80;99.90
4090;DHT22;2059;48.538;12.146;2023-08-12T06:41:53;20.10;99.90
4090;DHT22;2059;48.538;12.146;2023-08-12T06:46:56;20.40;99.90
4090;DHT22;2059;48.538;12.146;2023-08-12T06:51:57;20.60;99.90
4090;DHT22;2059;48.538;12.146;2023-08-12T06:57:01;21.00;99.90
4090;DHT22;2059;48.538;12.146;2023-08-12T07:02:02;21.30;99.90
4090;DHT22;2059;48.538;12.146;2023-08-12T07:07:04;21.50;99.90
4090;DHT22;2059;48.538;12.146;2023-08-12T07:12:07;21.80;99.90
4090;DHT22;2059;48.538;12.146;2023-08-12T07:17:10;22.00;99.90
4090;DHT22;2059;48.538;12.146;2023-08-12T07:22:11;22.30;99.90
4090;DHT22;2059;48.538;12.146;2023-08-12T07:27:14;22.60;99.90
4090;DHT22;2059;48.538;12.146;2023-08-12T07:32:16;22.90;99.50
4090;DHT22;2059;48.538;12.146;2023-08-12T07:37:19;23.30;98.70
4090;DHT22;2059;48.538;12.146;2023-08-12T07:42:22;23.50;98.40
4090;DHT22;2059;48.538;12.146;2023-08-12T07:47:24;23.70;98.10
4090;DHT22;2059;48.538;12.146;2023-08-12T07:52:26;23.90;97.90
4090;DHT22;2059;48.538;12.146;2023-08-12T07:57:29;24.10;97.70
4090;DHT22;2059;48.538;12.146;2023-08-12T08:02:31;24.40;97.40
4090;DHT22;2059;48.538;12.146;2023-08-12T08:07:33;24.60;97.10
4090;DHT22;2059;48.538;12.146;2023-08-12T08:12:36;24.80;96.20
4090;DHT22;2059;48.538;12.146;2023-08-12T08:17:38;24.90;96.50
4090;DHT22;2059;48.538;12.146;2023-08-12T08:22:40;25.10;96.80
4090;DHT22;2059;48.538;12.146;2023-08-12T08:27:43;25.40;96.80
4090;DHT22;2059;48.538;12.146;2023-08-12T08:32:44;25.60;97.10
4090;DHT22;2059;48.538;12.146;2023-08-12T08:37:47;26.00;96.10
4090;DHT22;2059;48.538;12.146;2023-08-12T08:42:52;26.20;95.80
4090;DHT22;2059;48.538;12.146;2023-08-12T08:47:54;26.40;95.50
4090;DHT22;2059;48.538;12.146;2023-08-12T08:52:57;26.40;95.10
4090;DHT22;2059;48.538;12.146;2023-08-12T08:58:00;26.60;94.80
4090;DHT22;2059;48.538;12.146;2023-08-12T09:03:03;26.20;94.90
4090;DHT22;2059;48.538;12.146;2023-08-12T09:08:07;26.00;95.00
4090;DHT22;2059;48.538;12.146;2023-08-12T09:13:12;26.00;95.80
4090;DHT22;2059;48.538;12.146;2023-08-12T09:18:15;26.70;95.40
4090;DHT22;2059;48.538;12.146;2023-08-12T09:23:17;27.50;94.60
4090;DHT22;2059;48.538;12.146;2023-08-12T09:28:21;28.10;94.50
4090;DHT22;2059;48.538;12.146;2023-08-12T09:33:25;28.30;93.20
4090;DHT22;2059;48.538;12.146;2023-08-12T09:38:27;28.30;92.30
4090;DHT22;2059;48.538;12.146;2023-08-12T09:43:31;28.20;92.40
4090;DHT22;2059;48.538;12.146;2023-08-12T09:48:33;28.40;92.50
4090;DHT22;2059;48.538;12.146;2023-08-12T09:53:35;28.70;92.40
4090;DHT22;2059;48.538;12.146;2023-08-12T09:58:39;28.60;91.50
4090;DHT22;2059;48.538;12.146;2023-08-12T10:03:46;28.60;91.70
4090;DHT22;2059;48.538;12.146;2023-08-12T10:08:50;28.80;92.00
4090;DHT22;2059;48.538;12.146;2023-08-12T10:13:54;28.70;90.90
4090;DHT22;2059;48.538;12.146;2023-08-12T10:18:57;28.40;91.00
4090;DHT22;2059;48.538;12.146;2023-08-12T10:23:59;28.40;91.30
4090;DHT22;2059;48.538;12.146;2023-08-12T10:29:04;28.60;91.20
4090;DHT22;2059;48.538;12.146;2023-08-12T10:34:06;28.50;91.50
4090;DHT22;2059;48.538;12.146;2023-08-12T10:39:08;28.50;91.10
4090;DHT22;2059;48.538;12.146;2023-08-12T10:44:12;28.50;90.50
4090;DHT22;2059;48.538;12.146;2023-08-12T10:49:15;28.60;91.30
4090;DHT22;2059;48.538;12.146;2023-08-12T10:54:20;28.90;90.70
4090;DHT22;2059;48.538;12.146;2023-08-12T10:59:53;30.00;90.20
4090;DHT22;2059;48.538;12.146;2023-08-12T11:04:56;30.20;87.30
4090;DHT22;2059;48.538;12.146;2023-08-12T11:10:03;30.10;88.60
4090;DHT22;2059;48.538;12.146;2023-08-12T11:15:07;30.10;88.70
4090;DHT22;2059;48.538;12.146;2023-08-12T11:20:10;29.90;88.70
4090;DHT22;2059;48.538;12.146;2023-08-12T11:25:13;29.60;88.80
4090;DHT22;2059;48.538;12.146;2023-08-12T11:30:19;29.50;87.80
4090;DHT22;2059;48.538;12.146;2023-08-12T11:35:22;29.90;88.60
4090;DHT22;2059;48.538;12.146;2023-08-12T11:40:26;30.30;86.10
4090;DHT22;2059;48.538;12.146;2023-08-12T11:45:30;30.40;85.30
4090;DHT22;2059;48.538;12.146;2023-08-12T11:50:31;30.60;84.40
4090;DHT22;2059;48.538;12.146;2023-08-12T11:55:34;30.50;83.90
4090;DHT22;2059;48.538;12.146;2023-08-12T12:00:37;30.50;83.70
4090;DHT22;2059;48.538;12.146;2023-08-12T12:05:39;30.10;84.10
4090;DHT22;2059;48.538;12.146;2023-08-12T12:10:41;30.40;84.50
4090;DHT22;2059;48.538;12.146;2023-08-12T12:15:44;30.40;86.60
4090;DHT22;2059;48.538;12.146;2023-08-12T12:20:55;30.50;84.90
4090;DHT22;2059;48.538;12.146;2023-08-12T12:25:59;30.80;85.40
4090;DHT22;2059;48.538;12.146;2023-08-12T12:31:02;31.10;83.90
4090;DHT22;2059;48.538;12.146;2023-08-12T12:36:04;30.80;85.10
4090;DHT22;2059;48.538;12.146;2023-08-12T12:41:06;30.80;85.20
4090;DHT22;2059;48.538;12.146;2023-08-12T12:46:09;31.20;85.80
4090;DHT22;2059;48.538;12.146;2023-08-12T12:51:11;31.40;82.50
4090;DHT22;2059;48.538;12.146;2023-08-12T12:56:14;31.60;85.50
4090;DHT22;2059;48.538;12.146;2023-08-12T13:01:17;31.50;85.80
4090;DHT22;2059;48.538;12.146;2023-08-12T13:06:19;31.70;82.60
4090;DHT22;2059;48.538;12.146;2023-08-12T13:11:21;31.80;82.00
4090;DHT22;2059;48.538;12.146;2023-08-12T13:16:24;31.90;82.70
4090;DHT22;2059;48.538;12.146;2023-08-12T13:21:26;31.90;81.90
4090;DHT22;2059;48.538;12.146;2023-08-12T13:26:27;32.00;80.30
4090;DHT22;2059;48.538;12.146;2023-08-12T13:31:31;32.00;81.60
4090;DHT22;2059;48.538;12.146;2023-08-12T13:36:32;32.20;83.20
4090;DHT22;2059;48.538;12.146;2023-08-12T13:41:34;31.90;80.30
4090;DHT22;2059;48.538;12.146;2023-08-12T13:46:37;31.80;82.60
4090;DHT22;2059;48.538;12.146;2023-08-12T13:51:39;31.80;81.60
4090;DHT22;2059;48.538;12.146;2023-08-12T13:56:40;32.10;85.10
4090;DHT22;2059;48.538;12.146;2023-08-12T14:01:43;32.10;82.60
4090;DHT22;2059;48.538;12.146;2023-08-12T14:06:46;32.00;84.40
4090;DHT22;2059;48.538;12.146;2023-08-12T14:11:48;32.30;84.80
4090;DHT22;2059;48.538;12.146;2023-08-12T14:16:51;32.60;84.90
4090;DHT22;2059;48.538;12.146;2023-08-12T14:21:53;32.40;81.40
4090;DHT22;2059;48.538;12.146;2023-08-12T14:26:54;32.00;82.40
4090;DHT22;2059;48.538;12.146;2023-08-12T14:31:58;31.90;83.80
4090;DHT22;2059;48.538;12.146;2023-08-12T14:36:59;32.00;84.50
4090;DHT22;2059;48.538;12.146;2023-08-12T14:42:01;31.90;84.20
4090;DHT22;2059;48.538;12.146;2023-08-12T14:47:07;32.10;84.30
4090;DHT22;2059;48.538;12.146;2023-08-12T14:52:15;32.50;85.60
4090;DHT22;2059;48.538;12.146;2023-08-12T14:57:17;32.60;83.40
4090;DHT22;2059;48.538;12.146;2023-08-12T15:02:21;32.20;84.60
4090;DHT22;2059;48.538;12.146;2023-08-12T15:07:23;32.30;82.70
4090;DHT22;2059;48.538;12.146;2023-08-12T15:12:25;31.80;83.30
4090;DHT22;2059;48.538;12.146;2023-08-12T15:17:29;31.60;82.80
4090;DHT22;2059;48.538;12.146;2023-08-12T15:22:30;31.40;83.70
4090;DHT22;2059;48.538;12.146;2023-08-12T15:27:32;31.30;84.50
4090;DHT22;2059;48.538;12.146;2023-08-12T15:32:36;31.30;84.10
4090;DHT22;2059;48.538;12.146;2023-08-12T15:37:38;31.30;84.70
4090;DHT22;2059;48.538;12.146;2023-08-12T15:42:40;31.70;84.00
4090;DHT22;2059;48.538;12.146;2023-08-12T15:47:43;31.70;82.50
4090;DHT22;2059;48.538;12.146;2023-08-12T15:52:45;31.20;77.90
4090;DHT22;2059;48.538;12.146;2023-08-12T15:57:46;31.30;77.50
4090;DHT22;2059;48.538;12.146;2023-08-12T16:02:49;31.20;78.00
4090;DHT22;2059;48.538;12.146;2023-08-12T16:07:51;31.00;77.50
4090;DHT22;2059;48.538;12.146;2023-08-12T16:12:53;30.40;79.90
4090;DHT22;2059;48.538;12.146;2023-08-12T16:17:56;29.80;82.50
4090;DHT22;2059;48.538;12.146;2023-08-12T16:22:58;29.40;82.80
4090;DHT22;2059;48.538;12.146;2023-08-12T16:28:00;29.20;83.70
4090;DHT22;2059;48.538;12.146;2023-08-12T16:33:03;30.00;83.80
4090;DHT22;2059;48.538;12.146;2023-08-12T16:38:05;30.60;81.80
4090;DHT22;2059;48.538;12.146;2023-08-12T16:43:07;31.70;80.00
4090;DHT22;2059;48.538;12.146;2023-08-12T16:48:10;30.90;80.40
4090;DHT22;2059;48.538;12.146;2023-08-12T16:53:12;30.00;82.00
4090;DHT22;2059;48.538;12.146;2023-08-12T16:58:13;29.30;83.60
4090;DHT22;2059;48.538;12.146;2023-08-12T17:03:16;29.00;84.40
4090;DHT22;2059;48.538;12.146;2023-08-12T17:08:18;28.70;85.60
4090;DHT22;2059;48.538;12.146;2023-08-12T17:13:20;28.60;85.90
4090;DHT22;2059;48.538;12.146;2023-08-12T17:18:23;28.50;86.00
4090;DHT22;2059;48.538;12.146;2023-08-12T17:23:25;28.30;87.10
4090;DHT22;2059;48.538;12.146;2023-08-12T17:28:26;28.10;88.30
4090;DHT22;2059;48.538;12.146;2023-08-12T17:33:30;27.90;89.10
4090;DHT22;2059;48.538;12.146;2023-08-12T17:38:32;27.80;90.00
4090;DHT22;2059;48.538;12.146;2023-08-12T17:43:33;27.60;90.50
4090;DHT22;2059;48.538;12.146;2023-08-12T17:48:37;27.50;90.80
4090;DHT22;2059;48.538;12.146;2023-08-12T17:53:39;27.40;91.20
4090;DHT22;2059;48.538;12.146;2023-08-12T17:58:41;27.30;91.60
4090;DHT22;2059;48.538;12.146;2023-08-12T18:03:44;27.10;91.90
4090;DHT22;2059;48.538;12.146;2023-08-12T18:08:45;27.00;91.40
4090;DHT22;2059;48.538;12.146;2023-08-12T18:13:47;26.90;91.70
4090;DHT22;2059;48.538;12.146;2023-08-12T18:18:50;26.70;91.70
4090;DHT22;2059;48.538;12.146;2023-08-12T18:23:52;26.70;91.50
4090;DHT22;2059;48.538;12.146;2023-08-12T18:28:54;26.50;91.60
4090;DHT22;2059;48.538;12.146;2023-08-12T18:33:57;26.40;91.50
4090;DHT22;2059;48.538;12.146;2023-08-12T18:38:59;26.20;91.70
4090;DHT22;2059;48.538;12.146;2023-08-12T18:44:00;26.20;91.80
4090;DHT22;2059;48.538;12.146;2023-08-12T18:49:04;26.30;91.70
4090;DHT22;2059;48.538;12.146;2023-08-12T18:54:06;26.10;91.90
4090;DHT22;2059;48.538;12.146;2023-08-12T18:59:08;25.90;91.90
4090;DHT22;2059;48.538;12.146;2023-08-12T19:04:11;25.80;92.10
4090;DHT22;2059;48.538;12.146;2023-08-12T19:09:12;25.80;92.40
4090;DHT22;2059;48.538;12.146;2023-08-12T19:14:16;25.70;92.40
4090;DHT22;2059;48.538;12.146;2023-08-12T19:19:19;25.70;92.60
4090;DHT22;2059;48.538;12.146;2023-08-12T19:24:21;25.60;92.90
4090;DHT22;2059;48.538;12.146;2023-08-12T19:29:23;25.50;93.00
4090;DHT22;2059;48.538;12.146;2023-08-12T19:34:26;25.40;93.70
4090;DHT22;2059;48.538;12.146;2023-08-12T19:39:28;25.30;93.80
4090;DHT22;2059;48.538;12.146;2023-08-12T19:44:29;25.30;93.60
4090;DHT22;2059;48.538;12.146;2023-08-12T19:49:33;25.20;93.80
4090;DHT22;2059;48.538;12.146;2023-08-12T19:54:35;25.10;94.60
4090;DHT22;2059;48.538;12.146;2023-08-12T19:59:39;25.00;95.10
4090;DHT22;2059;48.538;12.146;2023-08-12T20:04:44;25.00;95.40
4090;DHT22;2059;48.538;12.146;2023-08-12T20:09:46;25.00;95.50
4090;DHT22;2059;48.538;12.146;2023-08-12T20:14:48;24.90;95.70
4090;DHT22;2059;48.538;12.146;2023-08-12T20:19:51;24.80;95.80
4090;DHT22;2059;48.538;12.146;2023-08-12T20:24:53;24.80;95.90
4090;DHT22;2059;48.538;12.146;2023-08-12T20:29:54;24.70;96.10
4090;DHT22;2059;48.538;12.146;2023-08-12T20:34:58;24.70;96.10
4090;DHT22;2059;48.538;12.146;2023-08-12T20:40:00;24.60;96.30
4090;DHT22;2059;48.538;12.146;2023-08-12T20:45:02;24.60;96.50
4090;DHT22;2059;48.538;12.146;2023-08-12T20:50:07;24.50;96.70
4090;DHT22;2059;48.538;12.146;2023-08-12T20:55:09;24.40;96.90
4090;DHT22;2059;48.538;12.146;2023-08-12T21:00:11;24.30;97.20
4090;DHT22;2059;48.538;12.146;2023-08-12T21:05:15;24.20;97.30
4090;DHT22;2059;48.538;12.146;2023-08-12T21:10:17;24.10;97.30
4090;DHT22;2059;48.538;12.146;2023-08-12T21:15:18;24.10;97.60
4090;DHT22;2059;48.538;12.146;2023-08-12T21:20:21;24.10;97.80
4090;DHT22;2059;48.538;12.146;2023-08-12T21:25:23;24.10;98.10
4090;DHT22;2059;48.538;12.146;2023-08-12T21:30:25;24.00;98.20
4090;DHT22;2059;48.538;12.146;2023-08-12T21:35:29;23.90;98.20
4090;DHT22;2059;48.538;12.146;2023-08-12T21:40:31;23.90;98.30
4090;DHT22;2059;48.538;12.146;2023-08-12T21:45:33;23.90;98.60
4090;DHT22;2059;48.538;12.146;2023-08-12T21:50:36;23.80;98.80
4090;DHT22;2059;48.538;12.146;2023-08-12T21:55:37;23.70;99.20
4090;DHT22;2059;48.538;12.146;2023-08-12T22:00:39;23.60;99.10
4090;DHT22;2059;48.538;12.146;2023-08-12T22:05:42;23.50;99.20
4090;DHT22;2059;48.538;12.146;2023-08-12T22:10:44;23.50;99.40
4090;DHT22;2059;48.538;12.146;2023-08-12T22:15:46;23.40;99.50
4090;DHT22;2059;48.538;12.146;2023-08-12T22:20:50;23.50;99.90
4090;DHT22;2059;48.538;12.146;2023-08-12T22:25:52;23.30;99.90
4090;DHT22;2059;48.538;12.146;2023-08-12T22:30:53;23.30;99.90
4090;DHT22;2059;48.538;12.146;2023-08-12T22:35:57;23.30;99.90
4090;DHT22;2059;48.538;12.146;2023-08-12T22:40:58;23.30;99.90
4090;DHT22;2059;48.538;12.146;2023-08-12T22:46:00;23.30;99.90
4090;DHT22;2059;48.538;12.146;2023-08-12T22:51:03;23.10;99.90
4090;DHT22;2059;48.538;12.146;2023-08-12T22:56:05;23.10;99.90
4090;DHT22;2059;48.538;12.146;2023-08-12T23:01:06;23.10;99.90
4090;DHT22;2059;48.538;12.146;2023-08-12T23:06:10;23.10;99.90
4090;DHT22;2059;48.538;12.146;2023-08-12T23:11:12;23.10;99.90
4090;DHT22;2059;48.538;12.146;2023-08-12T23:16:13;23.10;99.90
4090;DHT22;2059;48.538;12.146;2023-08-12T23:21:16;23.10;99.90
4090;DHT22;2059;48.538;12.146;2023-08-12T23:26:18;23.00;99.90
4090;DHT22;2059;48.538;12.146;2023-08-12T23:31:20;22.90;99.90
4090;DHT22;2059;48.538;12.146;2023-08-12T23:36:23;22.90;99.90
4090;DHT22;2059;48.538;12.146;2023-08-12T23:41:25;22.80;99.90
4090;DHT22;2059;48.538;12.146;2023-08-12T23:46:26;22.80;99.90
4090;DHT22;2059;48.538;12.146;2023-08-12T23:51:30;22.80;99.90
4090;DHT22;2059;48.538;12.146;2023-08-12T23:56:32;22.60;99.90
